sensor_id;sensor_type;location;lat;lon;timestamp;P1;durP1;ratioP1;P2;durP2;ratioP2
20792;SDS011;10556;-33.662;151.094;2022-07-19T00:02:53;4.93;;;4.43;;
20792;SDS011;10556;-33.662;151.094;2022-07-19T00:07:55;2.63;;;1.50;;
20792;SDS011;10556;-33.662;151.094;2022-07-19T00:13:00;5.47;;;0.90;;
20792;SDS011;10556;-33.662;151.094;2022-07-19T00:18:02;0.83;;;0.40;;
20792;SDS011;10556;-33.662;151.094;2022-07-19T00:23:05;1.07;;;0.43;;
20792;SDS011;10556;-33.662;151.094;2022-07-19T00:28:09;1.73;;;0.50;;
20792;SDS011;10556;-33.662;151.094;2022-07-19T00:33:12;2.23;;;0.33;;
20792;SDS011;10556;-33.662;151.094;2022-07-19T00:38:15;1.53;;;0.50;;
20792;SDS011;10556;-33.662;151.094;2022-07-19T00:43:19;1.53;;;0.20;;
20792;SDS011;10556;-33.662;151.094;2022-07-19T00:48:22;3.10;;;0.47;;
20792;SDS011;10556;-33.662;151.094;2022-07-19T00:53:25;2.13;;;0.30;;
20792;SDS011;10556;-33.662;151.094;2022-07-19T00:58:29;3.57;;;0.50;;
20792;SDS011;10556;-33.662;151.094;2022-07-19T01:03:34;2.33;;;0.30;;
20792;SDS011;10556;-33.662;151.094;2022-07-19T01:08:38;4.40;;;0.40;;
20792;SDS011;10556;-33.662;151.094;2022-07-19T01:13:43;0.77;;;0.30;;
20792;SDS011;10556;-33.662;151.094;2022-07-19T01:18:46;0.97;;;0.30;;
20792;SDS011;10556;-33.662;151.094;2022-07-19T01:23:51;1.23;;;0.30;;
20792;SDS011;10556;-33.662;151.094;2022-07-19T01:28:53;2.67;;;0.50;;
20792;SDS011;10556;-33.662;151.094;2022-07-19T01:33:56;5.80;;;0.70;;
20792;SDS011;10556;-33.662;151.094;2022-07-19T01:39:01;3.30;;;0.43;;
20792;SDS011;10556;-33.662;151.094;2022-07-19T01:44:03;1.43;;;0.80;;
20792;SDS011;10556;-33.662;151.094;2022-07-19T01:49:06;2.07;;;0.60;;
20792;SDS011;10556;-33.662;151.094;2022-07-19T01:54:11;1.33;;;0.43;;
20792;SDS011;10556;-33.662;151.094;2022-07-19T01:59:13;2.00;;;0.30;;
20792;SDS011;10556;-33.662;151.094;2022-07-19T02:04:16;1.87;;;0.50;;
20792;SDS011;10556;-33.662;151.094;2022-07-19T02:09:20;2.43;;;0.40;;
20792;SDS011;10556;-33.662;151.094;2022-07-19T02:14:23;2.07;;;0.67;;
20792;SDS011;10556;-33.662;151.094;2022-07-19T02:19:26;0.70;;;0.30;;
20792;SDS011;10556;-33.662;151.094;2022-07-19T02:24:30;2.83;;;0.30;;
20792;SDS011;10556;-33.662;151.094;2022-07-19T02:29:33;1.63;;;0.30;;
20792;SDS011;10556;-33.662;151.094;2022-07-19T02:34:35;1.07;;;0.40;;
20792;SDS011;10556;-33.662;151.094;2022-07-19T02:39:40;3.40;;;0.50;;
20792;SDS011;10556;-33.662;151.094;2022-07-19T02:44:42;0.30;;;0.20;;
20792;SDS011;10556;-33.662;151.094;2022-07-19T02:49:45;1.80;;;0.50;;
20792;SDS011;10556;-33.662;151.094;2022-07-19T02:54:49;3.40;;;0.50;;
20792;SDS011;10556;-33.662;151.094;2022-07-19T02:59:52;1.37;;;0.40;;
20792;SDS011;10556;-33.662;151.094;2022-07-19T03:04:54;3.70;;;1.33;;
20792;SDS011;10556;-33.662;151.094;2022-07-19T03:09:59;1.83;;;0.47;;
20792;SDS011;10556;-33.662;151.094;2022-07-19T03:15:02;1.73;;;0.30;;
20792;SDS011;10556;-33.662;151.094;2022-07-19T03:20:05;2.73;;;0.33;;
20792;SDS011;10556;-33.662;151.094;2022-07-19T03:25:10;4.37;;;0.30;;
20792;SDS011;10556;-33.662;151.094;2022-07-19T03:30:13;3.13;;;0.40;;
20792;SDS011;10556;-33.662;151.094;2022-07-19T03:35:16;2.50;;;0.60;;
20792;SDS011;10556;-33.662;151.094;2022-07-19T03:40:20;2.00;;;0.20;;
20792;SDS011;10556;-33.662;151.094;2022-07-19T03:45:23;2.03;;;0.33;;
20792;SDS011;10556;-33.662;151.094;2022-07-19T03:50:25;3.43;;;0.30;;
20792;SDS011;10556;-33.662;151.094;2022-07-19T03:55:30;2.93;;;0.37;;
20792;SDS011;10556;-33.662;151.094;2022-07-19T04:00:32;2.07;;;0.50;;
20792;SDS011;10556;-33.662;151.094;2022-07-19T04:05:35;1.10;;;0.20;;
20792;SDS011;10556;-33.662;151.094;2022-07-19T04:10:40;1.07;;;0.40;;
20792;SDS011;10556;-33.662;151.094;2022-07-19T04:15:42;1.40;;;0.30;;
20792;SDS011;10556;-33.662;151.094;2022-07-19T04:20:45;0.87;;;0.40;;
20792;SDS011;10556;-33.662;151.094;2022-07-19T04:25:49;1.43;;;0.40;;
20792;SDS011;10556;-33.662;151.094;2022-07-19T04:30:52;1.87;;;0.50;;
20792;SDS011;10556;-33.662;151.094;2022-07-19T04:35:54;2.83;;;0.80;;
20792;SDS011;10556;-33.662;151.094;2022-07-19T04:40:59;2.27;;;0.60;;
20792;SDS011;10556;-33.662;151.094;2022-07-19T04:46:01;4.07;;;0.50;;
20792;SDS011;10556;-33.662;151.094;2022-07-19T04:51:04;2.30;;;0.63;;
20792;SDS011;10556;-33.662;151.094;2022-07-19T04:56:09;2.10;;;0.40;;
20792;SDS011;10556;-33.662;151.094;2022-07-19T05:01:11;2.17;;;0.50;;
20792;SDS011;10556;-33.662;151.094;2022-07-19T05:06:14;1.07;;;0.33;;
20792;SDS011;10556;-33.662;151.094;2022-07-19T05:11:18;1.63;;;0.40;;
20792;SDS011;10556;-33.662;151.094;2022-07-19T05:16:21;1.50;;;0.40;;
20792;SDS011;10556;-33.662;151.094;2022-07-19T05:21:24;0.80;;;0.40;;
20792;SDS011;10556;-33.662;151.094;2022-07-19T05:26:28;0.77;;;0.33;;
20792;SDS011;10556;-33.662;151.094;2022-07-19T05:31:31;1.13;;;0.50;;
20792;SDS011;10556;-33.662;151.094;2022-07-19T05:36:33;0.70;;;0.50;;
20792;SDS011;10556;-33.662;151.094;2022-07-19T05:41:38;2.50;;;0.47;;
20792;SDS011;10556;-33.662;151.094;2022-07-19T05:46:40;2.13;;;0.30;;
20792;SDS011;10556;-33.662;151.094;2022-07-19T05:51:47;2.00;;;0.53;;
20792;SDS011;10556;-33.662;151.094;2022-07-19T05:56:51;1.73;;;0.70;;
20792;SDS011;10556;-33.662;151.094;2022-07-19T06:01:54;2.67;;;1.07;;
20792;SDS011;10556;-33.662;151.094;2022-07-19T06:06:57;4.13;;;1.20;;
20792;SDS011;10556;-33.662;151.094;2022-07-19T06:12:01;3.37;;;0.60;;
20792;SDS011;10556;-33.662;151.094;2022-07-19T06:17:04;1.63;;;0.43;;
20792;SDS011;10556;-33.662;151.094;2022-07-19T06:22:06;0.60;;;0.40;;
20792;SDS011;10556;-33.662;151.094;2022-07-19T06:27:11;1.37;;;0.60;;
20792;SDS011;10556;-33.662;151.094;2022-07-19T06:32:13;1.33;;;0.70;;
20792;SDS011;10556;-33.662;151.094;2022-07-19T06:37:16;3.77;;;2.07;;
20792;SDS011;10556;-33.662;151.094;2022-07-19T06:42:20;1.07;;;0.60;;
20792;SDS011;10556;-33.662;151.094;2022-07-19T06:47:23;2.23;;;1.33;;
20792;SDS011;10556;-33.662;151.094;2022-07-19T06:52:25;2.07;;;0.77;;
20792;SDS011;10556;-33.662;151.094;2022-07-19T06:57:30;2.40;;;0.57;;
20792;SDS011;10556;-33.662;151.094;2022-07-19T07:02:32;0.97;;;0.60;;
20792;SDS011;10556;-33.662;151.094;2022-07-19T07:07:36;3.60;;;0.70;;
20792;SDS011;10556;-33.662;151.094;2022-07-19T07:12:41;2.50;;;1.00;;
20792;SDS011;10556;-33.662;151.094;2022-07-19T07:17:43;2.53;;;0.70;;
20792;SDS011;10556;-33.662;151.094;2022-07-19T07:22:46;2.30;;;0.50;;
20792;SDS011;10556;-33.662;151.094;2022-07-19T07:27:50;2.57;;;1.00;;
20792;SDS011;10556;-33.662;151.094;2022-07-19T07:32:53;5.03;;;1.40;;
20792;SDS011;10556;-33.662;151.094;2022-07-19T07:37:55;0.80;;;0.70;;
20792;SDS011;10556;-33.662;151.094;2022-07-19T07:43:00;2.67;;;1.40;;
20792;SDS011;10556;-33.662;151.094;2022-07-19T07:48:03;2.90;;;1.03;;
20792;SDS011;10556;-33.662;151.094;2022-07-19T07:53:05;2.20;;;0.70;;
20792;SDS011;10556;-33.662;151.094;2022-07-19T07:58:10;1.90;;;0.80;;
20792;SDS011;10556;-33.662;151.094;2022-07-19T08:03:13;1.00;;;0.90;;
20792;SDS011;10556;-33.662;151.094;2022-07-19T08:08:15;3.10;;;0.80;;
20792;SDS011;10556;-33.662;151.094;2022-07-19T08:13:20;1.53;;;0.90;;
20792;SDS011;10556;-33.662;151.094;2022-07-19T08:18:23;2.57;;;0.70;;
20792;SDS011;10556;-33.662;151.094;2022-07-19T08:23:26;1.00;;;0.70;;
20792;SDS011;10556;-33.662;151.094;2022-07-19T08:28:31;1.43;;;0.70;;
20792;SDS011;10556;-33.662;151.094;2022-07-19T08:33:33;1.63;;;0.77;;
20792;SDS011;10556;-33.662;151.094;2022-07-19T08:38:38;1.07;;;0.70;;
20792;SDS011;10556;-33.662;151.094;2022-07-19T08:43:42;1.23;;;0.60;;
20792;SDS011;10556;-33.662;151.094;2022-07-19T08:48:45;1.77;;;0.90;;
20792;SDS011;10556;-33.662;151.094;2022-07-19T08:53:48;1.30;;;1.10;;
20792;SDS011;10556;-33.662;151.094;2022-07-19T08:58:53;1.40;;;1.20;;
20792;SDS011;10556;-33.662;151.094;2022-07-19T09:04:06;2.43;;;1.20;;
20792;SDS011;10556;-33.662;151.094;2022-07-19T09:09:10;1.03;;;0.97;;
20792;SDS011;10556;-33.662;151.094;2022-07-19T09:14:16;2.33;;;0.90;;
20792;SDS011;10556;-33.662;151.094;2022-07-19T09:19:19;2.33;;;0.90;;
20792;SDS011;10556;-33.662;151.094;2022-07-19T09:24:23;2.03;;;0.93;;
20792;SDS011;10556;-33.662;151.094;2022-07-19T09:29:28;2.30;;;0.70;;
20792;SDS011;10556;-33.662;151.094;2022-07-19T09:34:32;2.30;;;0.77;;
20792;SDS011;10556;-33.662;151.094;2022-07-19T09:39:35;1.00;;;0.70;;
20792;SDS011;10556;-33.662;151.094;2022-07-19T09:44:40;1.57;;;0.70;;
20792;SDS011;10556;-33.662;151.094;2022-07-19T09:49:43;6.10;;;1.10;;
20792;SDS011;10556;-33.662;151.094;2022-07-19T09:54:46;1.10;;;1.00;;
20792;SDS011;10556;-33.662;151.094;2022-07-19T09:59:53;2.30;;;0.93;;
20792;SDS011;10556;-33.662;151.094;2022-07-19T10:04:58;1.53;;;1.00;;
20792;SDS011;10556;-33.662;151.094;2022-07-19T10:10:02;3.27;;;1.33;;
20792;SDS011;10556;-33.662;151.094;2022-07-19T10:15:09;2.63;;;1.00;;
20792;SDS011;10556;-33.662;151.094;2022-07-19T10:20:14;2.40;;;1.00;;
20792;SDS011;10556;-33.662;151.094;2022-07-19T10:25:20;4.33;;;1.30;;
20792;SDS011;10556;-33.662;151.094;2022-07-19T10:30:25;1.83;;;1.23;;
20792;SDS011;10556;-33.662;151.094;2022-07-19T10:35:28;2.50;;;1.37;;
20792;SDS011;10556;-33.662;151.094;2022-07-19T10:40:38;1.83;;;1.47;;
20792;SDS011;10556;-33.662;151.094;2022-07-19T10:46:06;1.40;;;1.30;;
20792;SDS011;10556;-33.662;151.094;2022-07-19T10:51:10;2.07;;;1.67;;
20792;SDS011;10556;-33.662;151.094;2022-07-19T10:56:16;2.43;;;1.70;;
20792;SDS011;10556;-33.662;151.094;2022-07-19T11:01:22;2.83;;;1.50;;
20792;SDS011;10556;-33.662;151.094;2022-07-19T11:06:26;2.50;;;1.70;;
20792;SDS011;10556;-33.662;151.094;2022-07-19T11:11:29;2.23;;;1.80;;
20792;SDS011;10556;-33.662;151.094;2022-07-19T11:16:33;11.47;;;9.27;;
20792;SDS011;10556;-33.662;151.094;2022-07-19T11:21:36;3.53;;;2.87;;
20792;SDS011;10556;-33.662;151.094;2022-07-19T11:26:39;4.20;;;3.10;;
20792;SDS011;10556;-33.662;151.094;2022-07-19T11:31:47;18.27;;;13.67;;
20792;SDS011;10556;-33.662;151.094;2022-07-19T11:36:56;4.13;;;3.23;;
20792;SDS011;10556;-33.662;151.094;2022-07-19T11:41:59;4.77;;;2.20;;
20792;SDS011;10556;-33.662;151.094;2022-07-19T11:47:03;4.70;;;3.07;;
20792;SDS011;10556;-33.662;151.094;2022-07-19T11:52:06;4.33;;;2.67;;
20792;SDS011;10556;-33.662;151.094;2022-07-19T11:57:22;3.73;;;2.53;;
20792;SDS011;10556;-33.662;151.094;2022-07-19T12:02:27;4.30;;;2.53;;
20792;SDS011;10556;-33.662;151.094;2022-07-19T12:07:29;4.57;;;2.10;;
20792;SDS011;10556;-33.662;151.094;2022-07-19T12:12:32;3.60;;;2.00;;
20792;SDS011;10556;-33.662;151.094;2022-07-19T12:17:53;4.00;;;2.20;;
20792;SDS011;10556;-33.662;151.094;2022-07-19T12:22:56;3.20;;;2.40;;
20792;SDS011;10556;-33.662;151.094;2022-07-19T12:28:13;5.40;;;4.03;;
20792;SDS011;10556;-33.662;151.094;2022-07-19T12:33:18;4.70;;;2.83;;
20792;SDS011;10556;-33.662;151.094;2022-07-19T12:38:30;5.83;;;4.10;;
20792;SDS011;10556;-33.662;151.094;2022-07-19T12:43:34;5.30;;;2.13;;
20792;SDS011;10556;-33.662;151.094;2022-07-19T12:48:38;3.07;;;2.23;;
20792;SDS011;10556;-33.662;151.094;2022-07-19T12:53:42;1.70;;;1.30;;
20792;SDS011;10556;-33.662;151.094;2022-07-19T12:58:45;2.53;;;1.40;;
20792;SDS011;10556;-33.662;151.094;2022-07-19T13:03:49;4.80;;;1.47;;
20792;SDS011;10556;-33.662;151.094;2022-07-19T13:08:52;3.33;;;1.77;;
20792;SDS011;10556;-33.662;151.094;2022-07-19T13:13:54;6.30;;;5.00;;
20792;SDS011;10556;-33.662;151.094;2022-07-19T13:18:59;6.27;;;5.67;;
20792;SDS011;10556;-33.662;151.094;2022-07-19T13:24:01;7.30;;;2.70;;
20792;SDS011;10556;-33.662;151.094;2022-07-19T13:29:04;2.30;;;1.83;;
20792;SDS011;10556;-33.662;151.094;2022-07-19T13:34:09;9.40;;;6.63;;
20792;SDS011;10556;-33.662;151.094;2022-07-19T13:39:11;9.00;;;6.87;;
20792;SDS011;10556;-33.662;151.094;2022-07-19T13:44:14;8.33;;;7.00;;
20792;SDS011;10556;-33.662;151.094;2022-07-19T13:49:18;9.73;;;7.00;;
20792;SDS011;10556;-33.662;151.094;2022-07-19T13:54:21;10.03;;;6.80;;
20792;SDS011;10556;-33.662;151.094;2022-07-19T13:59:24;7.63;;;4.80;;
20792;SDS011;10556;-33.662;151.094;2022-07-19T14:04:28;6.47;;;3.07;;
20792;SDS011;10556;-33.662;151.094;2022-07-19T14:09:31;5.53;;;2.70;;
20792;SDS011;10556;-33.662;151.094;2022-07-19T14:14:33;4.50;;;2.87;;
20792;SDS011;10556;-33.662;151.094;2022-07-19T14:19:38;3.50;;;2.70;;
20792;SDS011;10556;-33.662;151.094;2022-07-19T14:24:40;3.50;;;2.90;;
20792;SDS011;10556;-33.662;151.094;2022-07-19T14:29:43;3.93;;;3.00;;
20792;SDS011;10556;-33.662;151.094;2022-07-19T14:34:47;5.23;;;3.40;;
20792;SDS011;10556;-33.662;151.094;2022-07-19T14:39:50;7.83;;;4.03;;
20792;SDS011;10556;-33.662;151.094;2022-07-19T14:44:52;6.30;;;4.13;;
20792;SDS011;10556;-33.662;151.094;2022-07-19T14:49:57;8.60;;;4.20;;
20792;SDS011;10556;-33.662;151.094;2022-07-19T14:55:00;4.37;;;3.50;;
20792;SDS011;10556;-33.662;151.094;2022-07-19T15:00:03;6.37;;;3.47;;
20792;SDS011;10556;-33.662;151.094;2022-07-19T15:05:08;6.00;;;2.97;;
20792;SDS011;10556;-33.662;151.094;2022-07-19T15:10:11;4.10;;;3.10;;
20792;SDS011;10556;-33.662;151.094;2022-07-19T15:15:14;4.10;;;2.80;;
20792;SDS011;10556;-33.662;151.094;2022-07-19T15:20:18;2.40;;;2.20;;
20792;SDS011;10556;-33.662;151.094;2022-07-19T15:25:21;3.17;;;2.10;;
20792;SDS011;10556;-33.662;151.094;2022-07-19T15:30:24;6.17;;;2.60;;
20792;SDS011;10556;-33.662;151.094;2022-07-19T15:35:28;5.93;;;2.57;;
20792;SDS011;10556;-33.662;151.094;2022-07-19T15:40:31;4.87;;;2.10;;
20792;SDS011;10556;-33.662;151.094;2022-07-19T15:45:33;2.93;;;1.83;;
20792;SDS011;10556;-33.662;151.094;2022-07-19T15:50:38;3.13;;;1.90;;
20792;SDS011;10556;-33.662;151.094;2022-07-19T15:55:40;4.17;;;2.30;;
20792;SDS011;10556;-33.662;151.094;2022-07-19T16:00:43;3.50;;;2.23;;
20792;SDS011;10556;-33.662;151.094;2022-07-19T16:05:48;4.63;;;1.93;;
20792;SDS011;10556;-33.662;151.094;2022-07-19T16:10:51;5.60;;;2.50;;
20792;SDS011;10556;-33.662;151.094;2022-07-19T16:15:54;3.13;;;2.27;;
20792;SDS011;10556;-33.662;151.094;2022-07-19T16:20:58;4.63;;;2.60;;
20792;SDS011;10556;-33.662;151.094;2022-07-19T16:26:02;2.77;;;2.10;;
20792;SDS011;10556;-33.662;151.094;2022-07-19T16:31:05;2.70;;;1.60;;
20792;SDS011;10556;-33.662;151.094;2022-07-19T16:36:10;5.33;;;1.90;;
20792;SDS011;10556;-33.662;151.094;2022-07-19T16:41:12;2.50;;;1.60;;
20792;SDS011;10556;-33.662;151.094;2022-07-19T16:46:15;2.03;;;1.40;;
20792;SDS011;10556;-33.662;151.094;2022-07-19T16:51:19;2.33;;;1.30;;
20792;SDS011;10556;-33.662;151.094;2022-07-19T16:56:22;2.03;;;1.80;;
20792;SDS011;10556;-33.662;151.094;2022-07-19T17:01:25;4.90;;;1.67;;
20792;SDS011;10556;-33.662;151.094;2022-07-19T17:06:29;2.73;;;1.27;;
20792;SDS011;10556;-33.662;151.094;2022-07-19T17:11:32;1.80;;;1.47;;
20792;SDS011;10556;-33.662;151.094;2022-07-19T17:16:35;2.73;;;2.07;;
20792;SDS011;10556;-33.662;151.094;2022-07-19T17:21:40;3.67;;;2.53;;
20792;SDS011;10556;-33.662;151.094;2022-07-19T17:26:42;4.93;;;1.97;;
20792;SDS011;10556;-33.662;151.094;2022-07-19T17:31:45;2.63;;;2.00;;
20792;SDS011;10556;-33.662;151.094;2022-07-19T17:36:49;2.60;;;1.70;;
20792;SDS011;10556;-33.662;151.094;2022-07-19T17:41:52;2.23;;;1.40;;
20792;SDS011;10556;-33.662;151.094;2022-07-19T17:46:54;2.27;;;1.40;;
20792;SDS011;10556;-33.662;151.094;2022-07-19T17:52:05;4.07;;;1.43;;
20792;SDS011;10556;-33.662;151.094;2022-07-19T17:57:08;2.67;;;1.37;;
20792;SDS011;10556;-33.662;151.094;2022-07-19T18:02:11;3.50;;;1.80;;
20792;SDS011;10556;-33.662;151.094;2022-07-19T18:07:15;3.90;;;2.03;;
20792;SDS011;10556;-33.662;151.094;2022-07-19T18:12:23;3.27;;;1.93;;
20792;SDS011;10556;-33.662;151.094;2022-07-19T18:17:26;5.67;;;1.87;;
20792;SDS011;10556;-33.662;151.094;2022-07-19T18:22:30;2.17;;;1.50;;
20792;SDS011;10556;-33.662;151.094;2022-07-19T18:27:33;2.03;;;1.43;;
20792;SDS011;10556;-33.662;151.094;2022-07-19T18:32:35;2.17;;;1.43;;
20792;SDS011;10556;-33.662;151.094;2022-07-19T18:37:40;1.70;;;1.20;;
20792;SDS011;10556;-33.662;151.094;2022-07-19T18:42:42;1.97;;;0.93;;
20792;SDS011;10556;-33.662;151.094;2022-07-19T18:47:45;1.63;;;1.00;;
20792;SDS011;10556;-33.662;151.094;2022-07-19T18:52:50;1.00;;;0.80;;
20792;SDS011;10556;-33.662;151.094;2022-07-19T18:57:53;0.80;;;0.80;;
20792;SDS011;10556;-33.662;151.094;2022-07-19T19:02:55;3.20;;;1.20;;
20792;SDS011;10556;-33.662;151.094;2022-07-19T19:08:00;2.30;;;1.10;;
20792;SDS011;10556;-33.662;151.094;2022-07-19T19:13:02;1.43;;;1.20;;
20792;SDS011;10556;-33.662;151.094;2022-07-19T19:18:05;2.43;;;1.00;;
20792;SDS011;10556;-33.662;151.094;2022-07-19T19:23:10;2.50;;;1.67;;
20792;SDS011;10556;-33.662;151.094;2022-07-19T19:28:13;2.30;;;1.27;;
20792;SDS011;10556;-33.662;151.094;2022-07-19T19:33:15;2.03;;;1.23;;
20792;SDS011;10556;-33.662;151.094;2022-07-19T19:38:20;2.50;;;1.33;;
20792;SDS011;10556;-33.662;151.094;2022-07-19T19:43:22;3.60;;;1.50;;
20792;SDS011;10556;-33.662;151.094;2022-07-19T19:48:25;2.63;;;1.33;;
20792;SDS011;10556;-33.662;151.094;2022-07-19T19:53:29;1.83;;;1.30;;
20792;SDS011;10556;-33.662;151.094;2022-07-19T19:58:32;4.40;;;1.30;;
20792;SDS011;10556;-33.662;151.094;2022-07-19T20:03:34;3.33;;;1.70;;
20792;SDS011;10556;-33.662;151.094;2022-07-19T20:08:39;4.13;;;1.60;;
20792;SDS011;10556;-33.662;151.094;2022-07-19T20:13:42;3.10;;;1.53;;
20792;SDS011;10556;-33.662;151.094;2022-07-19T20:18:45;3.50;;;1.60;;
20792;SDS011;10556;-33.662;151.094;2022-07-19T20:23:49;3.00;;;1.50;;
20792;SDS011;10556;-33.662;151.094;2022-07-19T20:28:52;4.90;;;1.40;;
20792;SDS011;10556;-33.662;151.094;2022-07-19T20:33:54;1.60;;;1.27;;
20792;SDS011;10556;-33.662;151.094;2022-07-19T20:38:59;1.33;;;1.23;;
20792;SDS011;10556;-33.662;151.094;2022-07-19T20:44:02;3.10;;;1.37;;
20792;SDS011;10556;-33.662;151.094;2022-07-19T20:49:05;2.67;;;1.20;;
20792;SDS011;10556;-33.662;151.094;2022-07-19T20:54:09;1.70;;;1.10;;
20792;SDS011;10556;-33.662;151.094;2022-07-19T20:59:12;3.20;;;1.70;;
20792;SDS011;10556;-33.662;151.094;2022-07-19T21:04:15;2.63;;;1.40;;
20792;SDS011;10556;-33.662;151.094;2022-07-19T21:09:19;1.50;;;1.33;;
20792;SDS011;10556;-33.662;151.094;2022-07-19T21:14:22;3.03;;;1.77;;
20792;SDS011;10556;-33.662;151.094;2022-07-19T21:19:25;2.73;;;2.10;;
20792;SDS011;10556;-33.662;151.094;2022-07-19T21:24:29;6.00;;;2.80;;
20792;SDS011;10556;-33.662;151.094;2022-07-19T21:29:32;6.93;;;2.90;;
20792;SDS011;10556;-33.662;151.094;2022-07-19T21:34:34;3.07;;;2.77;;
20792;SDS011;10556;-33.662;151.094;2022-07-19T21:39:39;5.83;;;3.10;;
20792;SDS011;10556;-33.662;151.094;2022-07-19T21:44:41;4.13;;;3.20;;
20792;SDS011;10556;-33.662;151.094;2022-07-19T21:49:44;2.90;;;2.40;;
20792;SDS011;10556;-33.662;151.094;2022-07-19T21:54:49;2.90;;;2.60;;
20792;SDS011;10556;-33.662;151.094;2022-07-19T21:59:51;3.40;;;2.40;;
20792;SDS011;10556;-33.662;151.094;2022-07-19T22:04:54;4.93;;;3.03;;
20792;SDS011;10556;-33.662;151.094;2022-07-19T22:09:58;6.60;;;3.30;;
20792;SDS011;10556;-33.662;151.094;2022-07-19T22:15:01;2.33;;;2.13;;
20792;SDS011;10556;-33.662;151.094;2022-07-19T22:20:04;1.90;;;1.60;;
20792;SDS011;10556;-33.662;151.094;2022-07-19T22:25:10;3.17;;;2.40;;
20792;SDS011;10556;-33.662;151.094;2022-07-19T22:30:13;2.30;;;2.10;;
20792;SDS011;10556;-33.662;151.094;2022-07-19T22:35:15;1.40;;;1.10;;
20792;SDS011;10556;-33.662;151.094;2022-07-19T22:40:20;1.67;;;1.53;;
20792;SDS011;10556;-33.662;151.094;2022-07-19T22:45:22;2.30;;;1.20;;
20792;SDS011;10556;-33.662;151.094;2022-07-19T22:50:25;1.30;;;1.20;;
20792;SDS011;10556;-33.662;151.094;2022-07-19T22:55:29;2.13;;;1.93;;
20792;SDS011;10556;-33.662;151.094;2022-07-19T23:00:32;1.23;;;1.00;;
20792;SDS011;10556;-33.662;151.094;2022-07-19T23:05:35;1.03;;;0.80;;
20792;SDS011;10556;-33.662;151.094;2022-07-19T23:10:39;1.47;;;0.80;;
20792;SDS011;10556;-33.662;151.094;2022-07-19T23:15:42;2.10;;;1.03;;
20792;SDS011;10556;-33.662;151.094;2022-07-19T23:20:44;1.30;;;1.10;;
20792;SDS011;10556;-33.662;151.094;2022-07-19T23:25:49;2.03;;;1.20;;
20792;SDS011;10556;-33.662;151.094;2022-07-19T23:30:51;1.87;;;1.23;;
20792;SDS011;10556;-33.662;151.094;2022-07-19T23:35:54;1.80;;;1.17;;
20792;SDS011;10556;-33.662;151.094;2022-07-19T23:40:58;5.07;;;1.43;;
20792;SDS011;10556;-33.662;151.094;2022-07-19T23:46:01;1.93;;;1.30;;
20792;SDS011;10556;-33.662;151.094;2022-07-19T23:51:04;2.30;;;1.60;;
20792;SDS011;10556;-33.662;151.094;2022-07-19T23:56:09;1.63;;;1.10;;
